sensor_id;sensor_type;location;lat;lon;timestamp;pressure;altitude;pressure_sealevel;temperature;humidity
22753;BME280;11543;43.144;24.684;2023-05-08T00:00:00;98900.53;;;16.50;57.89
22753;BME280;11543;43.144;24.684;2023-05-08T00:02:29;98889.97;;;16.41;58.48
22753;BME280;11543;43.144;24.684;2023-05-08T00:04:55;98882.50;;;16.43;58.17
22753;BME280;11543;43.144;24.684;2023-05-08T00:07:21;98895.09;;;16.50;57.67
22753;BME280;11543;43.144;24.684;2023-05-08T00:09:47;98903.09;;;16.59;57.91
22753;BME280;11543;43.144;24.684;2023-05-08T00:12:13;98893.94;;;16.60;57.73
22753;BME280;11543;43.144;24.684;2023-05-08T00:14:39;98874.72;;;16.54;57.44
22753;BME280;11543;43.144;24.684;2023-05-08T00:17:04;98895.63;;;16.61;57.35
22753;BME280;11543;43.144;24.684;2023-05-08T00:19:30;98875.75;;;16.53;57.21
22753;BME280;11543;43.144;24.684;2023-05-08T00:21:55;98885.19;;;16.58;57.21
22753;BME280;11543;43.144;24.684;2023-05-08T00:24:21;98870.09;;;16.48;57.14
22753;BME280;11543;43.144;24.684;2023-05-08T00:26:46;98868.03;;;16.50;57.17
22753;BME280;11543;43.144;24.684;2023-05-08T00:29:13;98873.63;;;16.49;57.20
22753;BME280;11543;43.144;24.684;2023-05-08T00:31:40;98877.53;;;16.46;57.29
22753;BME280;11543;43.144;24.684;2023-05-08T00:34:09;98872.50;;;16.43;57.43
22753;BME280;11543;43.144;24.684;2023-05-08T00:36:35;98875.84;;;16.45;57.42
22753;BME280;11543;43.144;24.684;2023-05-08T00:39:00;98883.72;;;16.40;57.59
22753;BME280;11543;43.144;24.684;2023-05-08T00:41:26;98879.53;;;16.38;57.78
22753;BME280;11543;43.144;24.684;2023-05-08T00:43:52;98871.72;;;16.28;57.85
22753;BME280;11543;43.144;24.684;2023-05-08T00:46:18;98872.09;;;16.25;57.93
22753;BME280;11543;43.144;24.684;2023-05-08T00:48:45;98883.19;;;16.30;57.69
22753;BME280;11543;43.144;24.684;2023-05-08T00:51:12;98872.66;;;16.20;57.85
22753;BME280;11543;43.144;24.684;2023-05-08T00:53:40;98881.88;;;16.26;57.84
22753;BME280;11543;43.144;24.684;2023-05-08T00:56:10;98870.97;;;16.19;57.58
22753;BME280;11543;43.144;24.684;2023-05-08T00:58:37;98877.03;;;16.21;57.39
22753;BME280;11543;43.144;24.684;2023-05-08T01:01:05;98875.81;;;16.24;57.51
22753;BME280;11543;43.144;24.684;2023-05-08T01:03:33;98865.94;;;16.16;57.49
22753;BME280;11543;43.144;24.684;2023-05-08T01:06:01;98895.22;;;16.28;57.87
22753;BME280;11543;43.144;24.684;2023-05-08T01:08:27;98894.31;;;16.20;58.20
22753;BME280;11543;43.144;24.684;2023-05-08T01:11:08;98884.81;;;16.10;58.34
22753;BME280;11543;43.144;24.684;2023-05-08T01:21:44;98892.50;;;15.91;59.55
22753;BME280;11543;43.144;24.684;2023-05-08T01:32:35;98891.22;;;15.50;61.39
22753;BME280;11543;43.144;24.684;2023-05-08T01:35:48;98901.09;;;15.43;61.62
22753;BME280;11543;43.144;24.684;2023-05-08T01:38:25;98892.22;;;15.34;62.23
22753;BME280;11543;43.144;24.684;2023-05-08T01:40:55;98883.72;;;15.22;62.15
22753;BME280;11543;43.144;24.684;2023-05-08T01:46:33;98896.00;;;15.10;62.84
22753;BME280;11543;43.144;24.684;2023-05-08T01:49:10;98871.53;;;14.89;63.30
22753;BME280;11543;43.144;24.684;2023-05-08T01:51:45;98876.94;;;14.89;63.73
22753;BME280;11543;43.144;24.684;2023-05-08T01:54:15;98876.72;;;14.76;63.92
22753;BME280;11543;43.144;24.684;2023-05-08T01:56:45;98881.88;;;14.85;64.17
22753;BME280;11543;43.144;24.684;2023-05-08T01:59:14;98882.72;;;14.86;64.43
22753;BME280;11543;43.144;24.684;2023-05-08T02:01:43;98865.19;;;14.82;64.22
22753;BME280;11543;43.144;24.684;2023-05-08T02:04:11;98883.19;;;14.89;64.26
22753;BME280;11543;43.144;24.684;2023-05-08T02:06:38;98889.69;;;14.80;64.58
22753;BME280;11543;43.144;24.684;2023-05-08T02:09:07;98866.69;;;14.61;64.64
22753;BME280;11543;43.144;24.684;2023-05-08T02:11:34;98891.47;;;14.65;64.89
22753;BME280;11543;43.144;24.684;2023-05-08T02:14:02;98882.28;;;14.51;64.97
22753;BME280;11543;43.144;24.684;2023-05-08T02:16:29;98863.09;;;14.38;65.10
22753;BME280;11543;43.144;24.684;2023-05-08T02:18:57;98873.91;;;14.38;65.33
22753;BME280;11543;43.144;24.684;2023-05-08T02:21:25;98869.56;;;14.29;65.69
22753;BME280;11543;43.144;24.684;2023-05-08T02:23:53;98899.38;;;14.44;65.95
22753;BME280;11543;43.144;24.684;2023-05-08T02:26:21;98889.16;;;14.54;65.58
22753;BME280;11543;43.144;24.684;2023-05-08T02:28:49;98876.44;;;14.62;65.16
22753;BME280;11543;43.144;24.684;2023-05-08T02:31:15;98873.03;;;14.69;64.73
22753;BME280;11543;43.144;24.684;2023-05-08T02:33:42;98897.25;;;14.85;64.25
22753;BME280;11543;43.144;24.684;2023-05-08T02:36:11;98884.75;;;14.84;64.18
22753;BME280;11543;43.144;24.684;2023-05-08T02:38:40;98895.78;;;14.97;64.00
22753;BME280;11543;43.144;24.684;2023-05-08T02:41:09;98885.72;;;14.91;63.79
22753;BME280;11543;43.144;24.684;2023-05-08T02:43:36;98891.97;;;14.91;63.87
22753;BME280;11543;43.144;24.684;2023-05-08T02:46:15;98900.81;;;15.00;63.67
22753;BME280;11543;43.144;24.684;2023-05-08T02:49:00;98899.88;;;14.93;63.47
22753;BME280;11543;43.144;24.684;2023-05-08T02:51:46;98904.44;;;14.92;63.44
22753;BME280;11543;43.144;24.684;2023-05-08T02:54:19;98896.28;;;14.78;63.74
22753;BME280;11543;43.144;24.684;2023-05-08T02:56:59;98893.88;;;14.83;63.86
22753;BME280;11543;43.144;24.684;2023-05-08T02:59:37;98901.56;;;14.94;63.82
22753;BME280;11543;43.144;24.684;2023-05-08T03:02:51;98909.13;;;14.98;63.43
22753;BME280;11543;43.144;24.684;2023-05-08T03:04:53;98908.63;;;14.95;63.57
22753;BME280;11543;43.144;24.684;2023-05-08T03:07:22;98899.41;;;14.89;63.57
22753;BME280;11543;43.144;24.684;2023-05-08T03:09:55;98903.31;;;14.87;63.44
22753;BME280;11543;43.144;24.684;2023-05-08T03:12:23;98898.75;;;14.87;63.35
22753;BME280;11543;43.144;24.684;2023-05-08T03:17:24;98891.78;;;14.93;63.18
22753;BME280;11543;43.144;24.684;2023-05-08T03:19:55;98898.84;;;14.94;63.30
22753;BME280;11543;43.144;24.684;2023-05-08T03:22:23;98905.63;;;14.90;63.10
22753;BME280;11543;43.144;24.684;2023-05-08T03:24:52;98901.91;;;14.91;63.09
22753;BME280;11543;43.144;24.684;2023-05-08T03:27:18;98911.53;;;14.93;63.23
22753;BME280;11543;43.144;24.684;2023-05-08T03:29:45;98918.44;;;14.96;63.12
22753;BME280;11543;43.144;24.684;2023-05-08T03:32:12;98907.88;;;14.86;63.20
22753;BME280;11543;43.144;24.684;2023-05-08T03:34:39;98916.25;;;14.91;63.19
22753;BME280;11543;43.144;24.684;2023-05-08T03:37:05;98922.22;;;14.87;63.57
22753;BME280;11543;43.144;24.684;2023-05-08T03:39:31;98931.63;;;14.91;63.81
22753;BME280;11543;43.144;24.684;2023-05-08T03:41:56;98916.94;;;14.93;63.77
22753;BME280;11543;43.144;24.684;2023-05-08T03:44:23;98923.28;;;15.01;63.58
22753;BME280;11543;43.144;24.684;2023-05-08T03:46:51;98929.63;;;15.08;63.53
22753;BME280;11543;43.144;24.684;2023-05-08T03:49:22;98926.38;;;15.12;63.73
22753;BME280;11543;43.144;24.684;2023-05-08T03:51:50;98907.56;;;15.04;63.68
22753;BME280;11543;43.144;24.684;2023-05-08T03:54:15;98910.53;;;15.09;63.68
22753;BME280;11543;43.144;24.684;2023-05-08T03:56:41;98911.75;;;15.07;63.97
22753;BME280;11543;43.144;24.684;2023-05-08T03:59:13;98934.88;;;15.09;64.39
22753;BME280;11543;43.144;24.684;2023-05-08T04:04:38;98929.34;;;15.03;65.19
22753;BME280;11543;43.144;24.684;2023-05-08T04:07:30;98932.16;;;15.09;65.16
22753;BME280;11543;43.144;24.684;2023-05-08T04:10:14;98931.31;;;15.09;65.32
22753;BME280;11543;43.144;24.684;2023-05-08T04:13:04;98927.13;;;15.06;65.59
22753;BME280;11543;43.144;24.684;2023-05-08T04:15:34;98930.19;;;15.03;65.71
22753;BME280;11543;43.144;24.684;2023-05-08T04:18:06;98935.53;;;15.11;65.94
22753;BME280;11543;43.144;24.684;2023-05-08T04:20:33;98923.75;;;15.04;66.24
22753;BME280;11543;43.144;24.684;2023-05-08T04:22:59;98921.34;;;15.09;66.24
22753;BME280;11543;43.144;24.684;2023-05-08T04:25:27;98917.63;;;15.10;66.01
22753;BME280;11543;43.144;24.684;2023-05-08T04:27:54;98919.06;;;15.21;65.69
22753;BME280;11543;43.144;24.684;2023-05-08T04:30:22;98929.25;;;15.34;65.19
22753;BME280;11543;43.144;24.684;2023-05-08T04:32:48;98926.34;;;15.35;65.13
22753;BME280;11543;43.144;24.684;2023-05-08T04:35:14;98914.88;;;15.33;64.83
22753;BME280;11543;43.144;24.684;2023-05-08T04:37:40;98925.16;;;15.38;64.99
22753;BME280;11543;43.144;24.684;2023-05-08T04:40:08;98917.78;;;15.32;64.89
22753;BME280;11543;43.144;24.684;2023-05-08T04:42:34;98921.69;;;15.29;65.10
22753;BME280;11543;43.144;24.684;2023-05-08T04:45:01;98925.31;;;15.21;65.55
22753;BME280;11543;43.144;24.684;2023-05-08T04:47:26;98925.66;;;15.18;65.60
22753;BME280;11543;43.144;24.684;2023-05-08T04:49:52;98929.28;;;15.11;65.93
22753;BME280;11543;43.144;24.684;2023-05-08T04:52:17;98942.59;;;15.12;66.40
22753;BME280;11543;43.144;24.684;2023-05-08T04:54:43;98935.34;;;15.13;66.39
22753;BME280;11543;43.144;24.684;2023-05-08T04:57:08;98932.75;;;15.19;66.53
22753;BME280;11543;43.144;24.684;2023-05-08T04:59:34;98936.59;;;15.25;66.53
22753;BME280;11543;43.144;24.684;2023-05-08T05:01:59;98923.25;;;15.23;66.78
22753;BME280;11543;43.144;24.684;2023-05-08T05:04:30;98916.09;;;15.30;66.36
22753;BME280;11543;43.144;24.684;2023-05-08T05:06:55;98922.72;;;15.43;66.24
22753;BME280;11543;43.144;24.684;2023-05-08T05:09:21;98923.31;;;15.53;65.90
22753;BME280;11543;43.144;24.684;2023-05-08T05:11:46;98929.34;;;15.63;65.63
22753;BME280;11543;43.144;24.684;2023-05-08T05:14:12;98934.47;;;15.73;65.59
22753;BME280;11543;43.144;24.684;2023-05-08T05:16:37;98920.78;;;15.74;65.51
22753;BME280;11543;43.144;24.684;2023-05-08T05:19:03;98917.13;;;15.82;65.10
22753;BME280;11543;43.144;24.684;2023-05-08T05:21:29;98923.56;;;15.96;65.25
22753;BME280;11543;43.144;24.684;2023-05-08T05:23:54;98924.75;;;16.08;65.51
22753;BME280;11543;43.144;24.684;2023-05-08T05:26:20;98919.13;;;16.24;65.76
22753;BME280;11543;43.144;24.684;2023-05-08T05:28:46;98912.84;;;16.38;65.98
22753;BME280;11543;43.144;24.684;2023-05-08T05:31:11;98909.28;;;16.52;65.63
22753;BME280;11543;43.144;24.684;2023-05-08T05:33:37;98907.75;;;16.65;65.17
22753;BME280;11543;43.144;24.684;2023-05-08T05:36:02;98910.69;;;16.84;65.03
22753;BME280;11543;43.144;24.684;2023-05-08T05:38:28;98903.34;;;17.00;65.44
22753;BME280;11543;43.144;24.684;2023-05-08T05:40:53;98891.56;;;17.14;64.59
22753;BME280;11543;43.144;24.684;2023-05-08T05:43:19;98893.16;;;17.30;64.15
22753;BME280;11543;43.144;24.684;2023-05-08T05:45:44;98898.16;;;17.54;64.47
22753;BME280;11543;43.144;24.684;2023-05-08T05:48:10;98893.69;;;17.68;64.33
22753;BME280;11543;43.144;24.684;2023-05-08T05:50:36;98894.59;;;17.81;64.46
22753;BME280;11543;43.144;24.684;2023-05-08T05:53:04;98901.81;;;18.02;64.56
22753;BME280;11543;43.144;24.684;2023-05-08T05:55:30;98890.97;;;18.09;64.30
22753;BME280;11543;43.144;24.684;2023-05-08T05:57:56;98891.06;;;18.22;64.10
22753;BME280;11543;43.144;24.684;2023-05-08T06:00:21;98888.81;;;18.32;63.39
22753;BME280;11543;43.144;24.684;2023-05-08T06:02:47;98889.47;;;18.41;62.99
22753;BME280;11543;43.144;24.684;2023-05-08T06:05:13;98873.78;;;18.43;62.36
22753;BME280;11543;43.144;24.684;2023-05-08T06:07:38;98886.56;;;18.56;62.17
22753;BME280;11543;43.144;24.684;2023-05-08T06:10:04;98884.97;;;18.68;61.88
22753;BME280;11543;43.144;24.684;2023-05-08T06:12:30;98872.00;;;18.70;61.55
22753;BME280;11543;43.144;24.684;2023-05-08T06:14:57;98868.03;;;18.79;61.31
22753;BME280;11543;43.144;24.684;2023-05-08T06:17:23;98869.72;;;18.93;60.94
22753;BME280;11543;43.144;24.684;2023-05-08T06:19:48;98868.72;;;19.07;60.59
22753;BME280;11543;43.144;24.684;2023-05-08T06:22:17;98878.97;;;19.32;60.50
22753;BME280;11543;43.144;24.684;2023-05-08T06:24:43;98875.19;;;19.46;60.79
22753;BME280;11543;43.144;24.684;2023-05-08T06:27:10;98863.69;;;19.57;59.78
22753;BME280;11543;43.144;24.684;2023-05-08T06:29:35;98856.97;;;19.66;59.53
22753;BME280;11543;43.144;24.684;2023-05-08T06:32:01;98881.81;;;19.90;59.30
22753;BME280;11543;43.144;24.684;2023-05-08T06:34:26;98867.16;;;19.91;59.32
22753;BME280;11543;43.144;24.684;2023-05-08T06:36:52;98869.84;;;20.04;58.99
22753;BME280;11543;43.144;24.684;2023-05-08T06:39:17;98858.97;;;20.04;58.90
22753;BME280;11543;43.144;24.684;2023-05-08T06:41:46;98867.06;;;20.17;58.57
22753;BME280;11543;43.144;24.684;2023-05-08T06:44:12;98881.06;;;20.27;58.57
22753;BME280;11543;43.144;24.684;2023-05-08T06:46:38;98883.56;;;20.35;58.83
22753;BME280;11543;43.144;24.684;2023-05-08T06:49:03;98856.34;;;20.29;58.78
22753;BME280;11543;43.144;24.684;2023-05-08T06:51:29;98857.97;;;20.36;58.78
22753;BME280;11543;43.144;24.684;2023-05-08T06:53:56;98858.38;;;20.47;58.46
22753;BME280;11543;43.144;24.684;2023-05-08T06:56:22;98882.56;;;20.68;58.82
22753;BME280;11543;43.144;24.684;2023-05-08T06:58:48;98882.91;;;20.78;58.06
22753;BME280;11543;43.144;24.684;2023-05-08T07:01:14;98873.28;;;20.82;58.35
22753;BME280;11543;43.144;24.684;2023-05-08T07:03:40;98897.66;;;21.02;57.79
22753;BME280;11543;43.144;24.684;2023-05-08T07:06:17;98887.94;;;21.13;56.79
22753;BME280;11543;43.144;24.684;2023-05-08T07:09:03;98867.50;;;21.22;54.62
22753;BME280;11543;43.144;24.684;2023-05-08T07:11:28;98869.25;;;21.41;53.36
22753;BME280;11543;43.144;24.684;2023-05-08T07:13:54;98872.25;;;21.58;53.48
22753;BME280;11543;43.144;24.684;2023-05-08T07:16:20;98862.03;;;21.72;52.44
22753;BME280;11543;43.144;24.684;2023-05-08T07:18:45;98875.03;;;21.94;52.71
22753;BME280;11543;43.144;24.684;2023-05-08T07:21:11;98868.00;;;22.05;52.34
22753;BME280;11543;43.144;24.684;2023-05-08T07:23:37;98882.84;;;22.28;50.76
22753;BME280;11543;43.144;24.684;2023-05-08T07:26:03;98866.88;;;22.43;50.79
22753;BME280;11543;43.144;24.684;2023-05-08T07:28:29;98873.88;;;22.57;50.38
22753;BME280;11543;43.144;24.684;2023-05-08T07:31:07;98868.22;;;22.70;49.38
22753;BME280;11543;43.144;24.684;2023-05-08T07:33:33;98881.97;;;22.94;49.29
22753;BME280;11543;43.144;24.684;2023-05-08T07:35:59;98882.72;;;23.01;49.37
22753;BME280;11543;43.144;24.684;2023-05-08T07:38:25;98882.38;;;23.09;49.28
22753;BME280;11543;43.144;24.684;2023-05-08T07:40:51;98871.09;;;23.17;48.32
22753;BME280;11543;43.144;24.684;2023-05-08T07:43:22;98882.69;;;23.42;47.83
22753;BME280;11543;43.144;24.684;2023-05-08T07:45:47;98869.72;;;23.49;46.97
22753;BME280;11543;43.144;24.684;2023-05-08T07:48:13;98872.84;;;23.65;47.77
22753;BME280;11543;43.144;24.684;2023-05-08T07:50:40;98883.19;;;23.86;46.50
22753;BME280;11543;43.144;24.684;2023-05-08T07:53:08;98876.22;;;24.07;45.76
22753;BME280;11543;43.144;24.684;2023-05-08T07:55:34;98867.50;;;24.22;46.29
22753;BME280;11543;43.144;24.684;2023-05-08T07:58:00;98868.69;;;24.37;47.45
22753;BME280;11543;43.144;24.684;2023-05-08T08:00:25;98865.53;;;24.57;46.18
22753;BME280;11543;43.144;24.684;2023-05-08T08:02:52;98876.38;;;24.81;45.28
22753;BME280;11543;43.144;24.684;2023-05-08T08:05:18;98870.97;;;24.97;44.34
22753;BME280;11543;43.144;24.684;2023-05-08T08:07:43;98871.97;;;25.08;43.78
22753;BME280;11543;43.144;24.684;2023-05-08T08:10:09;98870.34;;;25.24;43.45
22753;BME280;11543;43.144;24.684;2023-05-08T08:12:35;98864.84;;;25.40;43.37
22753;BME280;11543;43.144;24.684;2023-05-08T08:15:01;98868.16;;;25.59;42.91
22753;BME280;11543;43.144;24.684;2023-05-08T08:17:26;98873.13;;;25.79;41.22
22753;BME280;11543;43.144;24.684;2023-05-08T08:19:51;98860.94;;;25.92;40.80
22753;BME280;11543;43.144;24.684;2023-05-08T08:22:18;98868.59;;;26.07;41.30
22753;BME280;11543;43.144;24.684;2023-05-08T08:24:43;98867.19;;;26.26;38.27
22753;BME280;11543;43.144;24.684;2023-05-08T08:27:09;98861.91;;;26.41;38.21
22753;BME280;11543;43.144;24.684;2023-05-08T08:29:34;98872.56;;;26.59;37.15
22753;BME280;11543;43.144;24.684;2023-05-08T08:32:00;98857.25;;;26.69;37.53
22753;BME280;11543;43.144;24.684;2023-05-08T08:34:27;98861.81;;;26.85;37.97
22753;BME280;11543;43.144;24.684;2023-05-08T08:36:53;98864.53;;;27.02;37.46
22753;BME280;11543;43.144;24.684;2023-05-08T08:39:18;98856.66;;;27.15;38.09
22753;BME280;11543;43.144;24.684;2023-05-08T08:41:44;98856.31;;;27.44;38.39
22753;BME280;11543;43.144;24.684;2023-05-08T08:44:09;98852.66;;;27.65;37.99
22753;BME280;11543;43.144;24.684;2023-05-08T08:46:38;98863.28;;;27.88;38.04
22753;BME280;11543;43.144;24.684;2023-05-08T08:49:08;98866.75;;;28.16;37.08
22753;BME280;11543;43.144;24.684;2023-05-08T08:51:42;98846.34;;;28.22;36.14
22753;BME280;11543;43.144;24.684;2023-05-08T08:54:16;98851.38;;;28.25;36.31
22753;BME280;11543;43.144;24.684;2023-05-08T08:56:46;98863.00;;;28.42;36.49
22753;BME280;11543;43.144;24.684;2023-05-08T08:59:15;98860.28;;;28.47;36.46
22753;BME280;11543;43.144;24.684;2023-05-08T09:01:44;98856.41;;;28.48;36.48
22753;BME280;11543;43.144;24.684;2023-05-08T09:04:11;98854.22;;;28.61;36.02
22753;BME280;11543;43.144;24.684;2023-05-08T09:06:37;98852.09;;;28.73;36.21
22753;BME280;11543;43.144;24.684;2023-05-08T09:09:03;98855.69;;;28.78;36.29
22753;BME280;11543;43.144;24.684;2023-05-08T09:11:29;98864.28;;;28.87;36.56
22753;BME280;11543;43.144;24.684;2023-05-08T09:13:55;98842.19;;;28.87;36.66
22753;BME280;11543;43.144;24.684;2023-05-08T09:16:22;98853.25;;;28.97;36.36
22753;BME280;11543;43.144;24.684;2023-05-08T09:18:47;98840.00;;;28.99;36.75
22753;BME280;11543;43.144;24.684;2023-05-08T09:21:13;98845.25;;;29.06;36.21
22753;BME280;11543;43.144;24.684;2023-05-08T09:24:02;98832.53;;;29.00;35.16
22753;BME280;11543;43.144;24.684;2023-05-08T09:26:39;98823.44;;;28.99;35.81
22753;BME280;11543;43.144;24.684;2023-05-08T09:29:15;98841.66;;;29.10;35.63
22753;BME280;11543;43.144;24.684;2023-05-08T09:31:49;98828.94;;;28.99;35.02
22753;BME280;11543;43.144;24.684;2023-05-08T09:34:29;98822.03;;;29.02;34.83
22753;BME280;11543;43.144;24.684;2023-05-08T09:39:30;98832.81;;;29.18;36.03
22753;BME280;11543;43.144;24.684;2023-05-08T09:41:59;98826.16;;;29.40;34.67
22753;BME280;11543;43.144;24.684;2023-05-08T09:44:25;98828.44;;;29.53;34.06
22753;BME280;11543;43.144;24.684;2023-05-08T09:47:08;98840.56;;;29.67;34.53
22753;BME280;11543;43.144;24.684;2023-05-08T09:49:34;98840.56;;;29.62;34.02
22753;BME280;11543;43.144;24.684;2023-05-08T09:52:00;98841.13;;;29.44;33.89
22753;BME280;11543;43.144;24.684;2023-05-08T09:54:26;98837.78;;;29.22;nan
22753;BME280;11543;43.144;24.684;2023-05-08T09:56:52;98836.97;;;28.96;35.09
22753;BME280;11543;43.144;24.684;2023-05-08T09:59:25;98843.81;;;28.78;35.28
22753;BME280;11543;43.144;24.684;2023-05-08T10:01:51;98838.53;;;28.61;35.56
22753;BME280;11543;43.144;24.684;2023-05-08T10:04:17;98847.03;;;28.54;35.75
22753;BME280;11543;43.144;24.684;2023-05-08T10:06:43;98837.63;;;28.45;36.53
22753;BME280;11543;43.144;24.684;2023-05-08T10:09:19;98829.88;;;28.37;37.36
22753;BME280;11543;43.144;24.684;2023-05-08T10:11:50;98823.78;;;28.30;36.79
22753;BME280;11543;43.144;24.684;2023-05-08T10:14:17;98835.38;;;28.32;36.84
22753;BME280;11543;43.144;24.684;2023-05-08T10:16:45;98829.31;;;28.35;37.52
22753;BME280;11543;43.144;24.684;2023-05-08T10:19:16;98827.22;;;28.63;37.46
22753;BME280;11543;43.144;24.684;2023-05-08T10:21:47;98836.13;;;28.95;37.21
22753;BME280;11543;43.144;24.684;2023-05-08T10:24:27;98840.00;;;29.09;37.01
22753;BME280;11543;43.144;24.684;2023-05-08T10:30:02;98823.97;;;28.96;36.65
22753;BME280;11543;43.144;24.684;2023-05-08T10:32:37;98828.94;;;28.89;36.60
22753;BME280;11543;43.144;24.684;2023-05-08T10:35:08;98847.13;;;28.80;37.38
22753;BME280;11543;43.144;24.684;2023-05-08T10:37:35;98828.75;;;28.33;38.05
22753;BME280;11543;43.144;24.684;2023-05-08T10:40:02;98843.19;;;27.93;38.49
22753;BME280;11543;43.144;24.684;2023-05-08T10:42:28;98863.81;;;27.16;38.19
22753;BME280;11543;43.144;24.684;2023-05-08T10:44:54;98866.66;;;26.73;39.05
22753;BME280;11543;43.144;24.684;2023-05-08T10:47:26;98860.50;;;26.39;39.32
22753;BME280;11543;43.144;24.684;2023-05-08T10:50:15;98851.44;;;25.99;40.06
22753;BME280;11543;43.144;24.684;2023-05-08T11:02:05;98873.81;;;25.53;41.03
22753;BME280;11543;43.144;24.684;2023-05-08T11:04:31;98888.13;;;25.55;41.11
22753;BME280;11543;43.144;24.684;2023-05-08T11:06:57;98894.22;;;25.57;40.31
22753;BME280;11543;43.144;24.684;2023-05-08T11:09:28;98900.13;;;25.49;40.67
22753;BME280;11543;43.144;24.684;2023-05-08T11:12:07;98898.97;;;25.45;40.67
22753;BME280;11543;43.144;24.684;2023-05-08T11:14:41;98900.72;;;25.34;40.97
22753;BME280;11543;43.144;24.684;2023-05-08T11:17:08;98914.69;;;25.32;40.85
22753;BME280;11543;43.144;24.684;2023-05-08T11:19:35;98924.50;;;25.28;40.61
22753;BME280;11543;43.144;24.684;2023-05-08T11:24:37;98923.84;;;25.21;41.33
22753;BME280;11543;43.144;24.684;2023-05-08T11:27:03;98918.63;;;25.08;41.46
22753;BME280;11543;43.144;24.684;2023-05-08T11:29:29;98921.88;;;25.05;41.96
22753;BME280;11543;43.144;24.684;2023-05-08T11:31:57;98939.72;;;25.19;41.19
22753;BME280;11543;43.144;24.684;2023-05-08T11:40:49;98938.81;;;25.30;42.57
22753;BME280;11543;43.144;24.684;2023-05-08T11:46:02;98958.47;;;25.22;41.56
22753;BME280;11543;43.144;24.684;2023-05-08T11:55:35;98955.31;;;25.02;41.72
22753;BME280;11543;43.144;24.684;2023-05-08T11:58:28;98963.41;;;24.97;42.06
22753;BME280;11543;43.144;24.684;2023-05-08T12:51:03;98988.22;;;22.78;45.67
22753;BME280;11543;43.144;24.684;2023-05-08T12:53:32;98978.22;;;22.72;45.69
22753;BME280;11543;43.144;24.684;2023-05-08T12:56:01;98974.28;;;22.68;45.60
22753;BME280;11543;43.144;24.684;2023-05-08T12:58:29;98982.63;;;22.73;46.41
22753;BME280;11543;43.144;24.684;2023-05-08T13:01:09;99010.44;;;22.88;45.41
22753;BME280;11543;43.144;24.684;2023-05-08T13:03:37;99006.78;;;22.95;45.03
22753;BME280;11543;43.144;24.684;2023-05-08T13:06:03;99007.09;;;22.86;44.63
22753;BME280;11543;43.144;24.684;2023-05-08T13:08:33;99023.19;;;22.95;44.65
22753;BME280;11543;43.144;24.684;2023-05-08T13:11:00;99030.94;;;22.98;44.85
22753;BME280;11543;43.144;24.684;2023-05-08T13:13:29;99009.91;;;22.80;44.91
22753;BME280;11543;43.144;24.684;2023-05-08T13:15:56;99012.66;;;22.80;44.96
22753;BME280;11543;43.144;24.684;2023-05-08T13:18:26;99032.31;;;22.88;45.15
22753;BME280;11543;43.144;24.684;2023-05-08T13:20:53;99034.91;;;22.83;44.90
22753;BME280;11543;43.144;24.684;2023-05-08T13:23:19;99038.75;;;22.76;44.94
22753;BME280;11543;43.144;24.684;2023-05-08T13:25:44;99047.66;;;22.71;44.68
22753;BME280;11543;43.144;24.684;2023-05-08T13:28:10;99049.63;;;22.64;44.59
22753;BME280;11543;43.144;24.684;2023-05-08T13:30:36;99044.13;;;22.46;45.20
22753;BME280;11543;43.144;24.684;2023-05-08T13:33:03;99032.44;;;22.39;44.75
22753;BME280;11543;43.144;24.684;2023-05-08T13:35:30;99040.09;;;22.30;45.20
22753;BME280;11543;43.144;24.684;2023-05-08T13:37:58;99045.34;;;22.32;45.06
22753;BME280;11543;43.144;24.684;2023-05-08T13:40:42;99042.13;;;22.16;45.41
22753;BME280;11543;43.144;24.684;2023-05-08T13:43:15;99046.22;;;22.07;45.66
22753;BME280;11543;43.144;24.684;2023-05-08T13:45:43;99040.84;;;21.94;45.59
22753;BME280;11543;43.144;24.684;2023-05-08T13:48:25;99052.25;;;21.84;45.91
22753;BME280;11543;43.144;24.684;2023-05-08T13:50:52;99055.31;;;21.70;46.07
22753;BME280;11543;43.144;24.684;2023-05-08T13:53:24;99059.78;;;21.57;46.34
22753;BME280;11543;43.144;24.684;2023-05-08T13:55:49;99075.56;;;21.55;46.91
22753;BME280;11543;43.144;24.684;2023-05-08T13:58:15;99062.28;;;21.27;47.30
22753;BME280;11543;43.144;24.684;2023-05-08T14:00:43;99069.25;;;21.17;47.70
22753;BME280;11543;43.144;24.684;2023-05-08T14:03:09;99061.13;;;21.04;47.59
22753;BME280;11543;43.144;24.684;2023-05-08T14:05:35;99059.09;;;20.92;47.75
22753;BME280;11543;43.144;24.684;2023-05-08T14:08:00;99054.09;;;20.83;48.22
22753;BME280;11543;43.144;24.684;2023-05-08T14:10:26;99079.22;;;20.91;48.08
22753;BME280;11543;43.144;24.684;2023-05-08T14:12:51;99057.44;;;20.78;48.09
22753;BME280;11543;43.144;24.684;2023-05-08T14:15:17;99065.41;;;20.73;48.43
22753;BME280;11543;43.144;24.684;2023-05-08T14:17:43;99078.00;;;20.74;48.25
22753;BME280;11543;43.144;24.684;2023-05-08T14:20:09;99085.34;;;20.74;48.42
22753;BME280;11543;43.144;24.684;2023-05-08T14:22:38;99069.25;;;20.59;48.32
22753;BME280;11543;43.144;24.684;2023-05-08T14:25:08;99061.50;;;20.56;48.96
22753;BME280;11543;43.144;24.684;2023-05-08T14:27:33;99088.13;;;20.54;49.17
22753;BME280;11543;43.144;24.684;2023-05-08T14:29:59;99078.94;;;20.42;49.24
22753;BME280;11543;43.144;24.684;2023-05-08T14:32:26;99085.63;;;20.46;48.95
22753;BME280;11543;43.144;24.684;2023-05-08T14:34:51;99097.78;;;20.36;48.71
22753;BME280;11543;43.144;24.684;2023-05-08T14:37:17;99091.94;;;20.20;49.08
22753;BME280;11543;43.144;24.684;2023-05-08T14:39:42;99104.50;;;20.01;50.25
22753;BME280;11543;43.144;24.684;2023-05-08T14:42:09;99117.50;;;19.99;51.65
22753;BME280;11543;43.144;24.684;2023-05-08T14:44:35;99099.00;;;19.75;53.05